Time;durP1;ratioP1;P1;durP2;ratioP2;P2;SDS_P1;SDS_P2;PMS_P1;PMS_P2;Temp;Humidity;BMP_temperature;BMP_pressure;BME280_temperature;BME280_humidity;BME280_pressure;Samples;Min_cycle;Max_cycle;Signal;HPM_P1;HPM_P2
2022/09/08 00:02:24;;;;;;;23.90;15.40;;;;;;;7.55;65.48;99823.30;1693194;84;21076;-80
2022/09/08 00:04:51;;;;;;;26.50;14.63;;;;;;;7.55;65.46;99819.37;1693532;84;21151;-79
2022/09/08 00:07:18;;;;;;;26.23;14.07;;;;;;;7.55;65.25;99814.12;1693298;84;21339;-79
2022/09/08 00:09:45;;;;;;;30.97;15.05;;;;;;;7.56;65.37;99821.92;1693513;84;21124;-80
2022/09/08 00:12:13;;;;;;;29.20;14.23;;;;;;;7.57;65.53;99812.34;1693414;84;21135;-80
2022/09/08 00:14:39;;;;;;;23.65;14.33;;;;;;;7.56;65.66;99816.69;1693217;84;21103;-80
2022/09/08 00:17:05;;;;;;;24.95;13.00;;;;;;;7.57;66.15;99811.03;1693258;84;21087;-80
2022/09/08 00:19:32;;;;;;;24.65;14.10;;;;;;;7.58;66.26;99823.21;1693241;84;22520;-79
2022/09/08 00:21:59;;;;;;;24.55;13.85;;;;;;;7.60;66.33;99826.70;1693122;84;21717;-80
2022/09/08 00:24:26;;;;;;;22.75;14.47;;;;;;;7.59;66.51;99820.57;1693249;84;21603;-80
2022/09/08 00:26:52;;;;;;;22.95;14.20;;;;;;;7.62;66.82;99820.52;1693431;84;21602;-80
2022/09/08 00:29:19;;;;;;;21.10;13.08;;;;;;;7.65;67.06;99820.93;1693370;84;21654;-79
2022/09/08 00:31:46;;;;;;;22.50;13.00;;;;;;;7.70;67.22;99811.66;1693331;84;21236;-80
2022/09/08 00:34:13;;;;;;;27.30;13.65;;;;;;;7.72;67.43;99817.30;1693207;84;21183;-80
2022/09/08 00:36:40;;;;;;;22.82;13.08;;;;;;;7.75;67.53;99812.44;1693357;84;21068;-80
2022/09/08 00:39:06;;;;;;;19.77;12.75;;;;;;;7.77;67.54;99812.84;1693289;84;21071;-80
2022/09/08 00:41:33;;;;;;;20.88;13.13;;;;;;;7.79;67.78;99810.20;1693259;84;21095;-80
2022/09/08 00:44:38;;;;;;;24.63;13.83;;;;;;;7.80;68.03;99811.48;1693014;84;21243;-80
2022/09/08 00:47:12;;;;;;;30.70;14.95;;;;;;;7.83;68.05;99812.30;1693500;84;21096;-80
2022/09/08 00:49:39;;;;;;;25.80;13.40;;;;;;;7.84;67.81;99810.12;1693452;84;21531;-80
2022/09/08 00:52:05;;;;;;;23.18;13.20;;;;;;;7.86;67.93;99801.78;1693640;84;21836;-79
2022/09/08 00:54:32;;;;;;;22.48;13.30;;;;;;;7.87;68.07;99802.17;1693333;83;21634;-80
2022/09/08 00:56:58;;;;;;;24.25;13.53;;;;;;;7.87;68.17;99796.94;1693351;84;21642;-80
2022/09/08 00:59:26;;;;;;;22.80;14.25;;;;;;;7.85;68.10;99790.44;1693007;84;22324;-80
2022/09/08 01:01:53;;;;;;;31.33;16.30;;;;;;;7.85;68.18;99794.38;1693252;84;21100;-79
2022/09/08 01:04:20;;;;;;;25.30;16.17;;;;;;;7.86;67.97;99797.84;1693179;84;21067;-80
2022/09/08 01:12:46;;;;;;;22.95;14.33;;;;;;;7.91;67.99;99792.06;1685695;84;21035;-79
2022/09/08 01:15:20;;;;;;;33.15;18.55;;;;;;;7.91;67.81;99793.38;1693195;84;21563;-80
2022/09/08 01:17:49;;;;;;;34.33;18.05;;;;;;;7.92;67.67;99791.19;1693211;84;21084;-80
2022/09/08 01:20:18;;;;;;;27.85;15.85;;;;;;;7.94;67.74;99795.95;1693438;84;21938;-80
2022/09/08 01:23:02;;;;;;;30.15;16.87;;;;;;;7.94;67.92;99789.39;1693249;83;21137;-80
2022/09/08 01:25:54;;;;;;;29.77;15.72;;;;;;;7.96;68.00;99795.46;1693365;84;21104;-80
2022/09/08 01:28:37;;;;;;;31.55;14.35;;;;;;;7.97;68.12;99795.44;1692979;84;21159;-80
2022/09/08 01:31:04;;;;;;;25.45;14.53;;;;;;;7.98;68.46;99787.12;1693396;84;21587;-80
2022/09/08 01:33:31;;;;;;;28.00;14.60;;;;;;;7.98;68.71;99791.05;1693209;84;21009;-80
2022/09/08 01:35:57;;;;;;;25.97;15.20;;;;;;;8.00;68.71;99789.25;1693315;84;21161;-80
2022/09/08 01:38:24;;;;;;;36.95;17.67;;;;;;;8.03;68.80;99790.97;1693209;84;21080;-80
2022/09/08 01:40:50;;;;;;;27.73;15.30;;;;;;;8.04;69.10;99787.01;1693566;84;21670;-80
2022/09/08 01:43:17;;;;;;;27.20;17.00;;;;;;;8.05;69.26;99783.47;1693147;84;21096;-80
2022/09/08 01:45:43;;;;;;;28.80;16.80;;;;;;;8.07;69.32;99786.95;1693278;84;21134;-80
2022/09/08 01:48:10;;;;;;;32.73;16.30;;;;;;;8.09;69.16;99787.78;1693168;84;21080;-80
2022/09/08 01:50:36;;;;;;;25.40;15.30;;;;;;;8.12;69.07;99786.41;1693170;84;21056;-80
2022/09/08 01:53:03;;;;;;;30.70;16.32;;;;;;;8.16;69.34;99791.14;1692945;84;21075;-79
2022/09/08 01:55:29;;;;;;;30.20;16.40;;;;;;;8.16;69.61;99783.27;1693384;84;21630;-79
2022/09/08 01:57:57;;;;;;;29.80;16.12;;;;;;;8.17;69.59;99778.00;1693178;84;21075;-80
2022/09/08 02:00:23;;;;;;;29.92;15.23;;;;;;;8.19;69.64;99786.69;1693094;84;22035;-81
2022/09/08 02:02:50;;;;;;;28.52;16.32;;;;;;;8.23;69.66;99790.56;1693215;84;21123;-80
2022/09/08 02:05:16;;;;;;;34.18;17.15;;;;;;;8.25;69.84;99787.46;1693429;83;21143;-80
2022/09/08 02:07:43;;;;;;;38.58;19.10;;;;;;;8.27;69.50;99793.52;1693310;83;21175;-80
2022/09/08 02:10:10;;;;;;;36.88;18.15;;;;;;;8.29;69.07;99782.59;1693267;83;21242;-81
2022/09/08 02:12:36;;;;;;;33.70;17.50;;;;;;;8.31;68.50;99782.09;1693323;84;22165;-80
2022/09/08 02:15:07;;;;;;;34.85;18.25;;;;;;;8.34;68.71;99779.42;1692992;84;21124;-80
2022/09/08 02:17:34;;;;;;;32.28;17.23;;;;;;;8.37;69.14;99781.95;1693283;83;21162;-80
2022/09/08 02:20:01;;;;;;;32.03;17.12;;;;;;;8.37;69.24;99778.02;1693439;84;21127;-79
2022/09/08 02:22:27;;;;;;;31.77;16.87;;;;;;;8.37;69.41;99774.97;1693571;84;21126;-80
2022/09/08 02:24:54;;;;;;;30.15;17.45;;;;;;;8.37;69.24;99767.10;1697927;83;21224;-80
2022/09/08 02:27:20;;;;;;;33.35;17.57;;;;;;;8.34;69.50;99773.72;1697901;84;21096;-80
2022/09/08 02:29:46;;;;;;;33.83;17.00;;;;;;;8.32;69.49;99775.52;1697901;84;21206;-80
2022/09/08 02:32:13;;;;;;;26.48;16.35;;;;;;;8.29;69.35;99774.27;1698198;84;21139;-80
2022/09/08 02:34:39;;;;;;;32.93;16.40;;;;;;;8.26;69.26;99770.84;1697871;84;21127;-80
2022/09/08 02:37:07;;;;;;;30.02;16.62;;;;;;;8.21;69.12;99767.00;1697925;84;21627;-81
2022/09/08 02:39:33;;;;;;;41.55;17.50;;;;;;;8.18;68.86;99771.00;1698059;84;21127;-80
2022/09/08 02:42:00;;;;;;;33.60;17.17;;;;;;;8.13;68.62;99771.08;1697861;83;21073;-80
2022/09/08 02:44:26;;;;;;;28.00;16.55;;;;;;;8.06;68.66;99766.87;1698294;84;21069;-80
2022/09/08 02:46:53;;;;;;;35.98;18.55;;;;;;;8.03;68.58;99777.41;1698003;84;21115;-79
2022/09/08 02:49:20;;;;;;;34.92;18.27;;;;;;;7.99;68.53;99782.31;1698093;83;21102;-79
2022/09/08 02:51:47;;;;;;;36.15;17.73;;;;;;;7.93;68.30;99778.48;1697989;84;21654;-80
2022/09/08 02:54:13;;;;;;;38.67;17.87;;;;;;;7.85;68.62;99778.66;1698027;83;21568;-79
2022/09/08 02:56:40;;;;;;;34.63;17.62;;;;;;;7.79;68.59;99782.23;1698077;84;21527;-80
2022/09/08 02:59:07;;;;;;;34.38;17.70;;;;;;;7.74;68.67;99784.08;1697891;84;21092;-79
2022/09/08 03:01:33;;;;;;;38.53;19.00;;;;;;;7.71;69.09;99791.98;1698120;84;21949;-79
2022/09/08 03:04:01;;;;;;;37.48;18.55;;;;;;;7.69;69.50;99787.23;1697875;84;21604;-81
2022/09/08 03:06:27;;;;;;;34.05;18.27;;;;;;;7.65;69.78;99788.62;1697854;84;21084;-80
2022/09/08 03:08:54;;;;;;;37.55;18.42;;;;;;;7.63;70.04;99791.27;1698280;84;21102;-79
2022/09/08 03:11:21;;;;;;;36.35;18.57;;;;;;;7.61;70.25;99795.67;1697863;83;21087;-79
2022/09/08 03:13:48;;;;;;;34.53;18.27;;;;;;;7.60;70.21;99792.20;1698017;84;21178;-80
2022/09/08 03:16:14;;;;;;;35.58;18.35;;;;;;;7.62;70.32;99789.55;1697911;84;21162;-80
2022/09/08 03:18:41;;;;;;;38.02;17.87;;;;;;;7.63;70.44;99792.56;1698046;84;21593;-80
2022/09/08 03:21:10;;;;;;;31.87;17.23;;;;;;;7.62;70.39;99799.57;1697976;84;21633;-80
2022/09/08 03:23:36;;;;;;;33.88;17.82;;;;;;;7.63;70.34;99796.50;1670833;84;21170;-80
2022/09/08 03:26:06;;;;;;;38.35;18.67;;;;;;;7.65;70.39;99795.16;1696567;84;21107;-80
2022/09/08 03:28:33;;;;;;;36.08;18.52;;;;;;;7.66;70.69;99796.91;1695643;84;21079;-80
2022/09/08 03:31:00;;;;;;;32.63;17.85;;;;;;;7.63;70.82;99794.77;1696062;84;21653;-80
2022/09/08 03:33:28;;;;;;;31.95;17.30;;;;;;;7.62;70.62;99800.03;1695866;84;21138;-80
2022/09/08 03:36:00;;;;;;;34.18;17.80;;;;;;;7.62;70.48;99792.17;1696323;84;21547;-80
2022/09/08 03:38:26;;;;;;;33.28;16.35;;;;;;;7.61;70.13;99795.21;1696042;84;21263;-80
2022/09/08 03:40:54;;;;;;;29.37;16.90;;;;;;;7.57;69.90;99791.39;1696040;84;21028;-79
2022/09/08 03:43:20;;;;;;;30.17;17.27;;;;;;;7.55;69.56;99793.18;1695941;84;21067;-80
2022/09/08 03:45:47;;;;;;;37.13;18.40;;;;;;;7.54;69.38;99794.06;1696230;84;21051;-80
2022/09/08 03:48:14;;;;;;;33.30;17.25;;;;;;;7.52;69.12;99794.08;1696344;84;21048;-79
2022/09/08 03:50:41;;;;;;;31.00;16.97;;;;;;;7.50;69.17;99788.02;1696198;84;21750;-80
2022/09/08 03:53:08;;;;;;;32.70;16.05;;;;;;;7.46;68.94;99786.78;1696119;84;21558;-79
2022/09/08 03:55:34;;;;;;;35.83;17.07;;;;;;;7.43;68.98;99784.64;1696178;84;22159;-80
2022/09/08 03:58:01;;;;;;;34.03;18.42;;;;;;;7.42;68.90;99785.52;1696280;83;21547;-80
2022/09/08 04:00:27;;;;;;;27.73;16.50;;;;;;;7.40;69.03;99779.45;1696337;84;21107;-80
2022/09/08 04:02:55;;;;;;;35.75;18.10;;;;;;;7.41;69.04;99782.93;1696305;84;21650;-80
2022/09/08 04:05:21;;;;;;;30.70;17.45;;;;;;;7.37;69.09;99779.50;1672253;84;22393;-80
2022/09/08 04:07:48;;;;;;;30.27;16.00;;;;;;;7.39;69.13;99780.33;1696066;84;21659;-80
2022/09/08 04:10:15;;;;;;;33.20;16.93;;;;;;;7.38;69.24;99776.01;1696336;83;21657;-80
2022/09/08 04:12:42;;;;;;;31.60;16.23;;;;;;;7.38;69.16;99781.67;1696103;84;21178;-80
2022/09/08 04:15:09;;;;;;;30.65;16.45;;;;;;;7.37;69.22;99775.58;1696048;83;21272;-80
2022/09/08 04:17:36;;;;;;;32.30;17.23;;;;;;;7.38;69.29;99776.01;1696123;84;21603;-82
2022/09/08 04:20:03;;;;;;;28.80;17.20;;;;;;;7.41;69.30;99777.27;1696259;84;21626;-80
2022/09/08 04:22:30;;;;;;;34.05;17.77;;;;;;;7.48;69.28;99777.14;1696035;84;21131;-80
2022/09/08 04:24:57;;;;;;;36.23;17.87;;;;;;;7.55;69.53;99782.70;1686427;84;21138;-81
2022/09/08 04:27:23;;;;;;;36.10;17.10;;;;;;;7.59;70.46;99787.84;1674592;85;21249;-82
2022/09/08 04:29:50;;;;;;;36.08;17.87;;;;;;;7.64;70.09;99790.38;1684564;84;21138;-80
2022/09/08 04:32:18;;;;;;;40.08;18.32;;;;;;;7.72;69.98;99791.56;1684572;84;21581;-81
2022/09/08 04:34:49;;;;;;;33.80;17.48;;;;;;;7.78;69.53;99791.00;1684508;84;21333;-80
2022/09/08 04:37:16;;;;;;;31.68;17.70;;;;;;;7.85;69.89;99790.87;1684688;84;21174;-80
2022/09/08 04:39:42;;;;;;;33.98;18.67;;;;;;;7.92;70.02;99793.81;1684260;84;21638;-80
2022/09/08 04:42:09;;;;;;;33.83;19.32;;;;;;;7.99;69.65;99799.34;1684227;85;21078;-80
2022/09/08 04:44:35;;;;;;;38.60;19.35;;;;;;;8.07;70.16;99793.50;1684113;84;21083;-80
2022/09/08 04:47:02;;;;;;;39.50;17.70;;;;;;;8.18;70.57;99794.13;1684142;85;21059;-80
2022/09/08 04:49:29;;;;;;;40.23;18.87;;;;;;;8.34;70.21;99797.77;1684139;84;21098;-80
2022/09/08 04:51:56;;;;;;;44.00;18.23;;;;;;;8.47;70.07;99789.20;1684369;85;21268;-80
2022/09/08 04:54:23;;;;;;;39.38;19.37;;;;;;;8.59;69.56;99795.52;1684527;84;21104;-80
2022/09/08 04:56:50;;;;;;;37.17;18.98;;;;;;;8.74;70.28;99797.80;1684306;84;21570;-80
2022/09/08 04:59:17;;;;;;;41.48;18.75;;;;;;;8.94;69.64;99793.83;1684413;84;21581;-80
2022/09/08 05:01:43;;;;;;;36.88;18.05;;;;;;;9.12;69.11;99791.22;1684323;85;21126;-80
2022/09/08 05:04:10;;;;;;;38.75;18.95;;;;;;;9.32;68.73;99792.51;1684358;85;21076;-80
2022/09/08 05:06:36;;;;;;;52.53;20.15;;;;;;;9.48;68.22;99795.13;1684415;84;21047;-81
2022/09/08 05:09:03;;;;;;;44.10;20.80;;;;;;;9.64;67.30;99790.36;1684388;84;21067;-80
2022/09/08 05:11:31;;;;;;;44.90;20.72;;;;;;;9.81;66.44;99788.59;1684469;85;21072;-81
2022/09/08 05:13:58;;;;;;;38.25;18.45;;;;;;;9.95;65.81;99790.41;1684064;85;21122;-80
2022/09/08 05:16:26;;;;;;;44.38;18.30;;;;;;;10.09;65.29;99787.84;1684421;85;21209;-81
2022/09/08 05:18:57;;;;;;;37.38;17.45;;;;;;;10.22;64.92;99791.81;1684228;85;21068;-81
2022/09/08 05:21:23;;;;;;;37.58;17.02;;;;;;;10.38;64.87;99785.25;1684363;84;21032;-81
2022/09/08 05:23:52;;;;;;;34.27;16.77;;;;;;;10.56;65.13;99789.56;1686537;84;21004;-81
2022/09/08 05:26:20;;;;;;;28.52;14.07;;;;;;;10.73;64.95;99802.21;1693611;84;21098;-81
2022/09/08 05:28:46;;;;;;;29.80;12.93;;;;;;;10.93;64.00;99789.75;1693976;84;21124;-81
2022/09/08 05:31:18;;;;;;;26.27;11.38;;;;;;;11.12;63.16;99789.55;1693990;84;21057;-81
2022/09/08 05:33:44;;;;;;;9.45;5.17;;;;;;;11.34;62.24;99783.58;1693795;84;21593;-82
2022/09/08 05:36:18;;;;;;;13.68;4.50;;;;;;;11.55;59.58;99789.02;1694177;84;21036;-79
2022/09/08 05:38:46;;;;;;;8.77;3.63;;;;;;;12.02;54.78;99779.92;1694594;84;21174;-81
2022/09/08 05:41:14;;;;;;;11.28;4.00;;;;;;;12.02;54.78;99779.92;1694147;84;21843;-84
2022/09/08 05:43:40;;;;;;;5.90;3.72;;;;;;;12.24;53.63;99782.19;1694388;84;21143;-81
2022/09/08 05:46:07;;;;;;;8.28;3.70;;;;;;;12.44;52.45;99783.23;1693959;84;21080;-81
2022/09/08 05:48:34;;;;;;;8.93;3.40;;;;;;;12.62;51.73;99783.84;1694072;84;21131;-82
2022/09/08 05:51:02;;;;;;;9.78;3.35;;;;;;;12.80;50.74;99782.24;1693776;84;21084;-82
2022/09/08 05:53:29;;;;;;;6.15;3.40;;;;;;;12.99;49.86;99774.91;1693777;84;21211;-82
2022/09/08 05:55:59;;;;;;;9.23;3.40;;;;;;;13.21;49.46;99785.45;1694163;84;21159;-82
2022/09/08 05:58:27;;;;;;;6.60;3.20;;;;;;;13.37;48.90;99774.69;1693916;84;21171;-81
2022/09/08 06:01:05;;;;;;;12.28;3.83;;;;;;;13.58;48.23;99773.84;1693897;84;21207;-82
2022/09/08 06:03:32;;;;;;;5.85;2.92;;;;;;;13.77;47.99;99777.42;1694045;84;21040;-82
2022/09/08 06:06:07;;;;;;;7.97;2.87;;;;;;;13.95;47.71;99779.70;1694130;84;21520;-81
2022/09/08 06:08:34;;;;;;;8.60;3.00;;;;;;;14.09;47.66;99779.95;1693960;84;21044;-82
2022/09/08 06:11:00;;;;;;;4.97;2.77;;;;;;;14.27;46.95;99778.72;1694225;84;21503;-82
2022/09/08 06:13:27;;;;;;;2.37;2.17;;;;;;;14.42;45.28;99781.97;1693859;84;21617;-81
2022/09/08 06:15:55;;;;;;;6.40;1.82;;;;;;;14.61;44.71;99781.19;1693843;84;21586;-81
2022/09/08 06:18:21;;;;;;;4.72;1.90;;;;;;;14.78;43.58;99785.67;1668472;84;21165;-81
2022/09/08 06:20:48;;;;;;;3.00;1.77;;;;;;;14.94;43.02;99780.48;1693863;84;21080;-82
2022/09/08 06:23:14;;;;;;;5.87;2.00;;;;;;;15.09;42.69;99778.88;1694101;84;21024;-81
2022/09/08 06:25:44;;;;;;;10.55;2.12;;;;;;;15.21;41.93;99775.62;1676770;84;21072;-82
2022/09/08 06:28:22;;;;;;;2.12;1.90;;;;;;;15.33;41.63;99780.77;1674084;84;21358;-80
2022/09/08 06:30:50;;;;;;;7.42;2.00;;;;;;;15.45;41.53;99780.18;1674555;84;21871;-81
2022/09/08 06:33:38;;;;;;;4.72;2.25;;;;;;;15.58;41.14;99785.25;1674015;84;21062;-81
2022/09/08 06:36:12;;;;;;;3.15;2.33;;;;;;;15.71;41.02;99780.16;1674070;84;21069;-81
2022/09/08 06:38:59;;;;;;;11.35;2.72;;;;;;;15.87;40.91;99788.23;1674129;84;22199;-82
2022/09/08 06:41:40;;;;;;;6.47;2.65;;;;;;;16.02;40.75;99791.00;1674060;84;21021;-81
2022/09/08 06:44:11;;;;;;;9.55;2.87;;;;;;;16.19;40.29;99795.41;1674035;84;21119;-82
2022/09/08 06:46:39;;;;;;;7.87;2.75;;;;;;;16.30;39.83;99791.23;1674122;85;21103;-82
2022/09/08 06:49:06;;;;;;;5.58;2.75;;;;;;;16.41;40.07;99801.74;1674498;84;21112;-82
2022/09/08 06:52:11;;;;;;;10.05;3.00;;;;;;;16.52;39.72;99808.66;1674278;85;21136;-82
2022/09/08 06:55:02;;;;;;;4.42;3.00;;;;;;;16.60;39.44;99802.47;1674347;84;21028;-82
2022/09/08 06:57:43;;;;;;;10.63;3.12;;;;;;;16.70;39.82;99802.34;1674032;84;22767;-82
2022/09/08 07:00:23;;;;;;;5.42;3.35;;;;;;;16.82;38.87;99801.28;1674330;84;21021;-82
2022/09/08 07:03:16;;;;;;;13.20;3.30;;;;;;;16.90;38.13;99805.73;1674270;84;21180;-82
2022/09/08 07:06:07;;;;;;;5.20;3.12;;;;;;;16.99;38.27;99810.99;1621375;88;48538;-82
2022/09/08 07:09:11;;;;;;;14.63;3.98;;;;;;;17.15;38.14;99810.52;1667442;84;21029;-82
2022/09/08 07:12:15;;;;;;;7.78;3.72;;;;;;;17.32;38.71;99816.67;1673652;85;21149;-83
2022/09/08 07:15:04;;;;;;;7.53;4.00;;;;;;;17.45;38.79;99815.86;1674348;85;21053;-81
2022/09/08 07:17:50;;;;;;;7.92;4.67;;;;;;;17.58;38.25;99815.13;1674352;84;21079;-83
2022/09/08 07:20:17;;;;;;;7.08;3.45;;;;;;;17.64;37.82;99812.97;1673330;84;21056;-82
2022/09/08 07:23:01;;;;;;;7.62;3.40;;;;;;;17.70;37.44;99811.77;1674346;85;21009;-83
2022/09/08 07:25:48;;;;;;;11.53;4.17;;;;;;;17.77;36.75;99818.43;1686358;84;21248;-83
2022/09/08 07:28:27;;;;;;;9.63;3.42;;;;;;;17.85;36.49;99822.43;1693958;84;21064;-82
2022/09/08 07:30:59;;;;;;;9.00;3.50;;;;;;;17.89;35.87;99824.86;1694036;84;21594;-82
2022/09/08 07:33:40;;;;;;;6.28;2.90;;;;;;;17.88;35.82;99830.27;1694027;84;21052;-82
2022/09/08 07:36:36;;;;;;;7.67;2.80;;;;;;;17.93;35.60;99826.85;1693867;84;21060;-82
2022/09/08 07:39:13;;;;;;;5.78;2.30;;;;;;;17.98;35.66;99815.45;1693919;84;21271;-82
2022/09/08 07:41:44;;;;;;;8.13;3.12;;;;;;;18.09;35.80;99822.32;1693851;84;21505;-83
2022/09/08 07:44:14;;;;;;;7.10;2.85;;;;;;;18.22;34.96;99822.89;1693963;84;21115;-82
2022/09/08 07:47:11;;;;;;;14.53;3.27;;;;;;;18.34;35.05;99824.78;1693798;84;21096;-82
2022/09/08 07:50:11;;;;;;;6.42;2.52;;;;;;;18.49;34.91;99827.86;1694354;84;21087;-82
2022/09/08 07:52:52;;;;;;;7.25;2.83;;;;;;;18.63;35.00;99832.80;1638902;84;21151;-82
2022/09/08 07:55:38;;;;;;;4.62;2.72;;;;;;;18.75;34.80;99824.02;1677295;84;21142;-82
2022/09/08 07:58:19;;;;;;;5.97;3.08;;;;;;;18.86;34.13;99832.22;1693690;84;21090;-83
2022/09/08 08:00:57;;;;;;;4.90;3.10;;;;;;;18.97;35.02;99831.52;1694172;84;22284;-82
2022/09/08 08:03:48;;;;;;;4.55;3.08;;;;;;;19.13;34.83;99830.03;1693908;84;21096;-82
2022/09/08 08:06:35;;;;;;;7.05;2.12;;;;;;;19.24;34.38;99826.19;1693921;84;21907;-83
2022/09/08 08:09:45;;;;;;;15.38;2.02;;;;;;;19.37;32.96;99825.41;1693777;84;21061;-82
2022/09/08 08:12:42;;;;;;;3.70;1.60;;;;;;;19.41;32.16;99824.23;1694016;84;21119;-83
2022/09/08 08:15:21;;;;;;;7.60;2.20;;;;;;;19.51;31.85;99814.65;1694462;84;21096;-82
2022/09/08 08:18:02;;;;;;;7.17;1.80;;;;;;;19.51;31.62;99810.64;1693971;84;21060;-82
2022/09/08 08:20:51;;;;;;;6.78;2.00;;;;;;;19.58;32.27;99809.75;1668192;84;21225;-82
2022/09/08 08:23:32;;;;;;;5.45;2.33;;;;;;;19.66;30.93;99813.61;1701971;84;21069;-82
2022/09/08 08:26:11;;;;;;;3.72;2.25;;;;;;;19.64;30.81;99815.53;1671565;85;21085;-83
2022/09/08 08:28:43;;;;;;;4.70;2.12;;;;;;;19.72;31.03;99807.48;1715189;83;21076;-80
2022/09/08 08:31:43;;;;;;;13.05;2.58;;;;;;;19.80;30.85;99809.18;1698127;84;21082;-81
2022/09/08 08:34:24;;;;;;;11.03;2.30;;;;;;;19.87;30.64;99803.82;1715315;83;21815;-83
2022/09/08 08:36:51;;;;;;;10.63;2.75;;;;;;;19.86;30.50;99810.11;1715512;83;21071;-83
2022/09/08 08:39:21;;;;;;;7.17;2.92;;;;;;;19.72;30.79;99809.69;1697835;84;21683;-83
2022/09/08 08:42:20;;;;;;;5.80;2.80;;;;;;;19.64;30.82;99812.87;1715631;83;21606;-84
2022/09/08 08:45:17;;;;;;;5.25;2.65;;;;;;;19.50;30.83;99810.26;1697954;83;21722;-83
2022/09/08 08:48:07;;;;;;;9.70;2.50;;;;;;;19.33;31.19;99809.20;1715361;83;21694;-82
2022/09/08 08:50:57;;;;;;;15.48;3.70;;;;;;;19.27;30.69;99807.81;1673947;84;21078;-83
2022/09/08 08:54:06;;;;;;;4.47;2.30;;;;;;;19.25;30.98;99811.06;1715294;83;21126;-83
2022/09/08 08:56:51;;;;;;;6.50;2.45;;;;;;;19.29;30.50;99810.73;1697935;83;21070;-82
2022/09/08 08:59:49;;;;;;;5.50;2.40;;;;;;;19.40;31.10;99810.50;1715397;83;21103;-83
2022/09/08 09:02:21;;;;;;;3.05;2.20;;;;;;;19.59;30.08;99811.48;1698073;83;22240;-82
2022/09/08 09:05:15;;;;;;;4.42;2.55;;;;;;;19.74;29.02;99806.92;1715086;83;21353;-81
2022/09/08 09:07:51;;;;;;;4.90;2.37;;;;;;;19.81;29.80;99801.56;1715367;83;21076;-82
2022/09/08 09:10:41;;;;;;;4.83;2.50;;;;;;;19.99;29.36;99801.63;1715231;83;21437;-80
2022/09/08 09:13:22;;;;;;;3.62;2.40;;;;;;;20.16;29.60;99802.28;1715336;83;21108;-82
2022/09/08 09:16:24;;;;;;;4.45;2.47;;;;;;;20.34;29.25;99798.31;1715127;83;21117;-82
2022/09/08 09:19:14;;;;;;;4.58;2.50;;;;;;;20.51;29.18;99795.77;1715257;83;21065;-82
2022/09/08 09:22:06;;;;;;;5.58;2.77;;;;;;;20.62;29.29;99790.97;1698071;83;21058;-83
2022/09/08 09:25:00;;;;;;;5.80;2.58;;;;;;;20.72;28.79;99789.38;1715234;83;21056;-83
2022/09/08 09:27:44;;;;;;;4.67;2.87;;;;;;;20.88;28.90;99793.14;1693294;84;21010;-82
2022/09/08 09:30:24;;;;;;;9.78;2.62;;;;;;;21.18;28.95;99791.81;1714252;83;21308;-82
2022/09/08 09:33:16;;;;;;;3.33;2.37;;;;;;;21.18;28.95;99791.81;1715683;83;21008;-82
2022/09/08 09:36:26;;;;;;;6.03;3.33;;;;;;;21.34;28.71;99796.40;1714685;83;21124;-82
2022/09/08 09:39:34;;;;;;;7.37;3.00;;;;;;;21.50;28.29;99797.48;1715377;83;21060;-81
2022/09/08 09:42:37;;;;;;;6.42;2.87;;;;;;;21.59;27.96;99790.56;1653817;86;21204;-84
2022/09/08 09:45:38;;;;;;;7.35;2.83;;;;;;;21.55;26.76;99797.11;1653750;86;21216;-83
2022/09/08 09:48:54;;;;;;;6.50;2.77;;;;;;;21.32;27.39;99791.66;1704761;83;22137;-83
2022/09/08 09:51:32;;;;;;;5.08;2.85;;;;;;;21.34;28.01;99800.91;1715395;83;21629;-84
2022/09/08 09:54:07;;;;;;;9.70;5.22;;;;;;;21.50;28.17;99797.95;1711223;83;21036;-82
2022/09/08 09:56:42;;;;;;;9.83;5.83;;;;;;;21.65;28.82;99787.89;1717932;83;20990;-80
2022/09/08 09:59:38;;;;;;;12.40;5.25;;;;;;;21.71;27.96;99790.12;1702715;83;21101;-80
2022/09/08 10:02:54;;;;;;;10.23;5.00;;;;;;;21.72;28.22;99794.52;1719787;82;21056;-82
2022/09/08 10:05:33;;;;;;;;;;;;;;;21.80;28.46;99802.78;1669484;82;21000;-80
2022/09/08 10:08:40;;;;;;;6.37;2.87;;;;;;;21.89;28.03;99804.77;1685760;84;20202;-80
2022/09/08 10:11:30;;;;;;;6.90;3.17;;;;;;;22.03;28.15;99810.88;1679959;84;21025;-81
2022/09/08 10:14:25;;;;;;;4.97;3.00;;;;;;;22.21;27.89;99814.80;1679785;84;21095;-81
2022/09/08 10:17:18;;;;;;;8.13;2.72;;;;;;;22.36;27.25;99805.20;1678797;84;21085;-83
2022/09/08 10:20:13;;;;;;;6.42;3.20;;;;;;;22.50;27.08;99814.86;1675601;85;21072;-83
2022/09/08 10:23:32;;;;;;;8.45;2.37;;;;;;;22.52;25.71;99812.40;1676034;85;21571;-83
2022/09/08 10:26:42;;;;;;;5.55;2.50;;;;;;;22.55;25.97;99815.34;1675626;85;21057;-81
2022/09/08 10:29:42;;;;;;;7.75;2.25;;;;;;;22.66;25.85;99814.47;1675814;85;22243;-83
2022/09/08 10:32:41;;;;;;;6.75;2.70;;;;;;;22.78;25.68;99810.31;1675406;85;21084;-84
2022/09/08 10:35:51;;;;;;;8.03;2.92;;;;;;;22.94;25.99;99809.91;1675774;85;21124;-83
2022/09/08 10:38:58;;;;;;;4.70;2.70;;;;;;;23.12;25.52;99814.80;1675596;84;21069;-82
2022/09/08 10:42:03;;;;;;;4.08;2.80;;;;;;;23.28;25.15;99807.16;1675495;85;21594;-82
2022/09/08 10:45:08;;;;;;;5.65;3.27;;;;;;;23.37;25.11;99805.56;1650092;85;21125;-82
2022/09/08 10:48:06;;;;;;;8.70;3.67;;;;;;;23.46;24.91;99812.83;1675534;85;20925;-82
2022/09/08 10:50:35;;;;;;;10.93;4.47;;;;;;;23.52;24.21;99806.11;1660653;85;21524;-82
2022/09/08 10:53:22;;;;;;;9.83;3.92;;;;;;;23.60;24.40;99811.66;1675554;85;21020;-82
2022/09/08 10:56:28;;;;;;;7.12;4.47;;;;;;;23.67;24.26;99811.52;1675595;85;22166;-83
2022/09/08 10:59:17;;;;;;;8.48;5.05;;;;;;;23.80;24.16;99814.50;1675472;85;21151;-82
2022/09/08 11:02:14;;;;;;;15.85;4.87;;;;;;;23.82;24.18;99809.87;1649486;85;21136;-82
2022/09/08 11:04:48;;;;;;;9.13;4.50;;;;;;;23.89;24.12;99808.39;1675520;85;21116;-84
2022/09/08 11:07:42;;;;;;;10.20;4.70;;;;;;;23.97;23.29;99811.23;1675965;85;21045;-82
2022/09/08 11:10:35;;;;;;;5.45;4.05;;;;;;;23.91;23.50;99805.07;1675468;85;21049;-82
2022/09/08 11:13:23;;;;;;;11.22;4.50;;;;;;;23.95;23.47;99797.09;1675261;85;21172;-82
2022/09/08 11:16:15;;;;;;;9.25;4.10;;;;;;;23.97;23.68;99796.95;1697724;84;21845;-82
2022/09/08 11:19:33;;;;;;;8.60;4.00;;;;;;;23.98;23.25;99800.02;1714840;83;21586;-83
2022/09/08 11:22:39;;;;;;;7.70;3.77;;;;;;;24.02;23.09;99799.59;1698052;83;21087;-81
2022/09/08 11:25:35;;;;;;;8.25;4.50;;;;;;;24.09;22.95;99797.23;1715401;83;21602;-82
2022/09/08 11:28:27;;;;;;;11.90;4.25;;;;;;;24.16;22.85;99797.55;1715262;83;21831;-82
2022/09/08 11:31:11;;;;;;;9.33;4.35;;;;;;;24.25;23.05;99799.45;1697654;83;21065;-82
2022/09/08 11:33:58;;;;;;;8.67;4.27;;;;;;;24.28;23.18;99795.16;1715650;83;21220;-84
2022/09/08 11:36:47;;;;;;;9.98;4.60;;;;;;;24.40;23.29;99795.91;1698042;84;21011;-82
2022/09/08 11:39:40;;;;;;;9.10;3.83;;;;;;;24.45;22.93;99791.82;1715047;83;21485;-82
2022/09/08 11:42:41;;;;;;;8.45;3.33;;;;;;;24.48;22.46;99794.75;1690855;83;21077;-83
2022/09/08 11:45:22;;;;;;;6.25;3.17;;;;;;;24.46;22.80;99794.88;1715414;83;21052;-83
2022/09/08 11:48:06;;;;;;;8.33;3.47;;;;;;;24.57;23.05;99791.77;1697762;84;21078;-82
2022/09/08 11:50:57;;;;;;;4.80;3.43;;;;;;;24.72;22.76;99790.89;1715547;83;21013;-82
2022/09/08 11:54:04;;;;;;;8.50;3.37;;;;;;;24.78;22.58;99787.16;1714963;83;21032;-84
2022/09/08 11:57:04;;;;;;;4.05;3.12;;;;;;;24.81;22.68;99788.23;1698170;84;21095;-83
2022/09/08 11:59:55;;;;;;;4.90;2.75;;;;;;;24.95;22.62;99790.14;1715308;83;21069;-80
2022/09/08 12:03:02;;;;;;;6.12;3.60;;;;;;;25.11;22.37;99776.99;1698449;84;21023;-81
2022/09/08 12:05:34;;;;;;;10.20;3.27;;;;;;;25.17;21.63;99779.13;1715321;83;22085;-83
2022/09/08 12:08:53;;;;;;;7.55;3.35;;;;;;;25.19;21.63;99777.14;1698506;84;21129;-83
2022/09/08 12:12:01;;;;;;;10.10;3.72;;;;;;;25.27;21.20;99781.00;1715354;83;21066;-82
2022/09/08 12:15:09;;;;;;;7.00;2.98;;;;;;;25.29;21.53;99779.87;1715431;83;21096;-82
2022/09/08 12:17:46;;;;;;;9.98;4.60;;;;;;;25.42;21.54;99775.56;1698326;83;21101;-82
2022/09/08 12:20:41;;;;;;;6.55;4.42;;;;;;;25.61;21.88;99781.94;1715473;83;21040;-82
2022/09/08 12:23:42;;;;;;;12.45;5.70;;;;;;;25.74;21.79;99778.44;1658868;84;21501;-83
2022/09/08 12:26:41;;;;;;;8.23;5.90;;;;;;;25.80;21.46;99785.92;1716513;83;21132;-81